Terminal Aerodrome Forecast
Issued by NWS

Home | Current Version | Previous Version | Text Only | Print | Product List | Glossary On
Versions: 1 2 3 4 5 6 7 8 9 10 11 12 13 14
000
FTUS46 KLOX 102300 RRA
TAFPMD
TAF
KPMD 102356Z 1100/1124 23021G29KT P6SM SKC
     FM110300 23014KT P6SM SKC
     FM110800 20006KT P6SM SKC
     FM111600 23010KT P6SM SKC
     FM112200 23016G24KT P6SM SKC=

USA.gov is the U.S. government's official web portal to all federal, state and local government web resources and services.